Crisnee, Belgium
Current Conditions -  °F | °C
As of 8:50 PM on Wednesday 26 Nov 2014 (Local Time) from EBLG Reporting Station
Scattered Clouds Scattered Clouds  
Wind Chill: 42°   Ceiling: Unl
Heat Index: 46°   Visibility: 6mi
Dew Point: 43°   Wind: 8mph
Humidity: 87%   Direction: 170°S
Pressure: 29.85"   Gusts: NA
Location:  50.72°N, 5.4°E
Report Text: EBLG 261950Z 17007KT 150V210 9999 SCT010 08/06 Q1011 TEMPO 4500 BR BKN006
Loading
Personal Weather Stations






























Interactive Weather Map New forecast layout! Learn more

10-Day Weather Forecast

Advertisements
Track Severe Weather on mobile